createdAt,value
2023-01-23T00:01:21.040Z,364.25
2023-01-23T00:03:48.374Z,206.85
2023-01-23T00:06:16.967Z,218.05
2023-01-23T00:09:10.307Z,217.35
2023-01-23T00:11:37.784Z,257.33
2023-01-23T00:14:12.995Z,319.60
2023-01-23T00:16:41.534Z,185.10
2023-01-23T00:19:10.734Z,151.70
2023-01-23T00:21:37.957Z,227.25
2023-01-23T00:24:07.836Z,261.35
2023-01-23T00:26:39.058Z,158.05
2023-01-23T00:29:06.929Z,275.00
2023-01-23T00:31:41.276Z,331.88
2023-01-23T00:34:12.396Z,181.10
2023-01-23T00:36:49.923Z,178.43
2023-01-23T00:39:22.666Z,394.10
2023-01-23T00:41:52.115Z,217.07
2023-01-23T00:44:20.622Z,349.13
2023-01-23T00:46:48.948Z,300.02
2023-01-23T00:49:18.126Z,205.80
2023-01-23T00:51:46.573Z,157.20
2023-01-23T00:54:14.068Z,392.02
2023-01-23T00:56:41.470Z,218.95
2023-01-23T00:59:09.026Z,188.05
2023-01-23T01:01:37.376Z,145.93
2023-01-23T01:04:04.967Z,168.13
2023-01-23T01:06:33.561Z,154.57
2023-01-23T01:09:00.966Z,136.70
2023-01-23T01:11:29.318Z,135.68
2023-01-23T01:13:56.753Z,119.53
2023-01-23T01:16:27.391Z,175.75
2023-01-23T01:18:55.049Z,120.32
2023-01-23T01:21:22.634Z,114.10
2023-01-23T01:23:51.139Z,136.77
2023-01-23T01:26:18.824Z,133.18
2023-01-23T01:28:48.512Z,115.65
2023-01-23T01:31:16.771Z,131.65
2023-01-23T01:33:45.622Z,110.60
2023-01-23T01:36:15.726Z,119.85
2023-01-23T01:38:43.382Z,116.97
2023-01-23T01:41:11.757Z,122.78
2023-01-23T01:43:39.625Z,125.50
2023-01-23T01:46:24.295Z,107.00
2023-01-23T01:49:10.084Z,101.97
2023-01-23T01:52:05.874Z,100.95
2023-01-23T01:54:59.366Z,99.30
2023-01-23T01:57:40.740Z,101.30
2023-01-23T02:00:18.728Z,115.97
2023-01-23T02:02:54.373Z,109.60
2023-01-23T02:05:28.243Z,105.65
2023-01-23T02:08:18.485Z,120.22
2023-01-23T02:10:47.183Z,138.38
2023-01-23T02:13:37.159Z,139.40
2023-01-23T02:16:08.916Z,193.52
2023-01-23T02:18:39.246Z,189.02
2023-01-23T02:21:08.557Z,130.30
2023-01-23T02:23:54.174Z,138.80
2023-01-23T02:26:38.066Z,276.67
2023-01-23T02:29:07.562Z,190.65
2023-01-23T02:31:35.730Z,158.88
2023-01-23T02:34:02.816Z,144.43
2023-01-23T02:36:34.002Z,203.77
2023-01-23T02:39:17.386Z,142.55
2023-01-23T02:41:48.672Z,155.95
2023-01-23T02:44:27.791Z,152.35
2023-01-23T02:46:56.828Z,119.25
2023-01-23T02:49:24.380Z,125.13
2023-01-23T02:51:54.231Z,162.43
2023-01-23T02:54:22.937Z,130.55
2023-01-23T02:56:51.569Z,111.28
2023-01-23T02:59:38.801Z,122.28
2023-01-23T03:02:06.611Z,127.53
2023-01-23T03:04:34.090Z,137.10
2023-01-23T03:07:03.501Z,135.10
2023-01-23T03:09:30.936Z,111.10
2023-01-23T03:11:59.425Z,142.50
2023-01-23T03:14:27.352Z,124.32
2023-01-23T03:16:55.551Z,124.35
2023-01-23T03:19:25.344Z,134.95
2023-01-23T03:21:53.509Z,117.63
2023-01-23T03:24:21.877Z,130.82
2023-01-23T03:26:57.246Z,123.75
2023-01-23T03:29:44.671Z,130.98
2023-01-23T03:32:13.883Z,121.40
2023-01-23T03:34:41.945Z,128.57
2023-01-23T03:37:17.742Z,125.07
2023-01-23T03:40:04.281Z,115.60
2023-01-23T03:42:35.149Z,116.72
2023-01-23T03:45:03.342Z,125.45
2023-01-23T03:47:30.831Z,112.88
2023-01-23T03:49:58.203Z,140.05
2023-01-23T03:52:26.772Z,137.65
2023-01-23T03:54:54.227Z,126.43
2023-01-23T03:57:21.771Z,123.78
2023-01-23T03:59:49.253Z,126.78
2023-01-23T04:02:16.958Z,127.53
2023-01-23T04:04:44.685Z,130.15
2023-01-23T04:07:12.247Z,128.38
2023-01-23T04:09:39.776Z,122.53
2023-01-23T04:12:09.067Z,124.60
2023-01-23T04:14:37.897Z,101.88
2023-01-23T04:17:06.129Z,117.47
2023-01-23T04:19:34.442Z,111.38
2023-01-23T04:22:03.542Z,122.22
2023-01-23T04:24:30.972Z,114.28
2023-01-23T04:26:58.539Z,127.32
2023-01-23T04:29:26.956Z,122.50
2023-01-23T04:31:54.464Z,123.15
2023-01-23T04:34:21.893Z,176.25
2023-01-23T04:36:49.334Z,145.95
2023-01-23T04:39:18.712Z,137.90
2023-01-23T04:41:52.385Z,131.93
2023-01-23T04:44:22.733Z,125.13
2023-01-23T04:46:53.559Z,131.23
2023-01-23T04:49:22.943Z,111.60
2023-01-23T04:51:53.831Z,143.95
2023-01-23T04:54:22.463Z,174.30
2023-01-23T04:56:50.215Z,149.07
2023-01-23T04:59:18.396Z,123.15
2023-01-23T05:01:46.034Z,130.90
2023-01-23T05:04:14.625Z,132.48
2023-01-23T05:06:42.269Z,161.25
2023-01-23T05:09:09.827Z,198.45
2023-01-23T05:11:38.304Z,126.30
2023-01-23T05:14:10.871Z,138.38
2023-01-23T05:16:38.568Z,134.67
2023-01-23T05:19:07.446Z,130.07
2023-01-23T05:21:34.896Z,165.38
2023-01-23T05:24:02.147Z,119.57
2023-01-23T05:26:29.628Z,142.05
2023-01-23T05:28:58.350Z,138.90
2023-01-23T05:31:26.240Z,100.95
2023-01-23T05:33:54.636Z,106.70
2023-01-23T05:36:22.037Z,117.10
2023-01-23T05:38:49.471Z,93.90
2023-01-23T05:41:28.629Z,88.72
2023-01-23T05:43:56.161Z,110.53
2023-01-23T05:46:23.805Z,93.15
2023-01-23T05:48:52.331Z,87.47
2023-01-23T05:51:21.925Z,81.25
2023-01-23T05:53:50.294Z,80.00
2023-01-23T05:56:17.894Z,78.70
2023-01-23T05:58:46.162Z,78.82
2023-01-23T06:01:14.729Z,77.65
2023-01-23T06:03:42.477Z,77.95
2023-01-23T06:06:10.175Z,74.53
2023-01-23T06:08:37.272Z,72.93
2023-01-23T06:11:10.562Z,91.70
2023-01-23T06:13:39.079Z,78.30
2023-01-23T06:16:10.540Z,81.47
2023-01-23T06:18:40.502Z,84.22
2023-01-23T06:21:07.852Z,87.28
2023-01-23T06:23:36.148Z,82.50
2023-01-23T06:26:05.006Z,83.15
2023-01-23T06:28:32.580Z,88.93
2023-01-23T06:31:04.331Z,79.32
2023-01-23T06:33:33.625Z,88.65
2023-01-23T06:36:02.725Z,83.10
2023-01-23T06:38:32.355Z,91.47
2023-01-23T06:40:59.816Z,93.35
2023-01-23T06:43:27.378Z,98.32
2023-01-23T06:45:55.722Z,88.03
2023-01-23T06:48:23.133Z,88.50
2023-01-23T06:50:52.975Z,105.85
2023-01-23T06:53:20.996Z,81.32
2023-01-23T06:55:48.641Z,110.70
2023-01-23T06:58:19.592Z,82.10
2023-01-23T07:00:47.049Z,89.40
2023-01-23T07:03:15.988Z,101.20
2023-01-23T07:05:44.613Z,95.28
2023-01-23T07:08:12.502Z,96.88
2023-01-23T07:10:40.798Z,87.50
2023-01-23T07:13:10.950Z,95.25
2023-01-23T07:15:47.333Z,98.90
2023-01-23T07:18:15.994Z,87.32
2023-01-23T07:20:47.922Z,85.57
2023-01-23T07:23:16.207Z,98.15
2023-01-23T07:25:45.064Z,82.82
2023-01-23T07:28:13.575Z,79.70
2023-01-23T07:30:42.081Z,80.55
2023-01-23T07:33:10.613Z,84.50
2023-01-23T07:35:40.396Z,85.45
2023-01-23T07:38:08.107Z,77.53
2023-01-23T07:40:39.583Z,82.88
2023-01-23T07:43:07.270Z,80.85
2023-01-23T07:45:36.723Z,92.15
2023-01-23T07:48:12.513Z,84.88
2023-01-23T07:50:41.662Z,91.78
2023-01-23T07:53:09.326Z,98.55
2023-01-23T07:55:43.183Z,92.55
2023-01-23T07:58:10.876Z,89.43
2023-01-23T08:00:46.253Z,102.60
2023-01-23T08:03:15.033Z,105.20
2023-01-23T08:05:43.959Z,101.03
2023-01-23T08:08:13.739Z,104.30
2023-01-23T08:10:42.227Z,97.63
2023-01-23T08:13:10.380Z,96.88
2023-01-23T08:15:46.880Z,99.47
2023-01-23T08:18:14.438Z,89.90
2023-01-23T08:20:44.445Z,93.45
2023-01-23T08:23:12.547Z,99.82
2023-01-23T08:25:41.005Z,95.57
2023-01-23T08:28:10.512Z,101.97
2023-01-23T08:30:38.840Z,94.05
2023-01-23T08:33:07.047Z,89.32
2023-01-23T08:35:38.696Z,92.63
2023-01-23T08:38:08.467Z,94.88
2023-01-23T08:40:37.412Z,92.20
2023-01-23T08:43:06.023Z,103.75
2023-01-23T08:45:35.399Z,200.82
2023-01-23T08:48:04.182Z,200.32
2023-01-23T08:50:32.384Z,152.73
2023-01-23T08:53:01.218Z,111.35
2023-01-23T08:55:29.593Z,121.88
2023-01-23T08:58:03.455Z,127.65
2023-01-23T09:00:33.698Z,194.65
2023-01-23T09:03:02.061Z,139.27
2023-01-23T09:05:30.651Z,131.85
2023-01-23T09:08:01.946Z,149.35
2023-01-23T09:10:29.575Z,145.57
2023-01-23T09:12:59.670Z,149.73
2023-01-23T09:15:27.311Z,152.43
2023-01-23T09:17:55.060Z,154.55
2023-01-23T09:20:23.283Z,148.88
2023-01-23T09:22:52.800Z,150.65
2023-01-23T09:25:21.732Z,130.35
2023-01-23T09:27:49.636Z,144.27
2023-01-23T09:30:17.685Z,155.00
2023-01-23T09:32:45.565Z,153.35
2023-01-23T09:35:13.545Z,131.07
2023-01-23T09:37:59.778Z,137.18
2023-01-23T09:40:31.609Z,125.97
2023-01-23T09:43:06.207Z,108.38
2023-01-23T09:45:34.471Z,95.32
2023-01-23T09:48:21.534Z,106.13
2023-01-23T09:51:26.393Z,105.18
2023-01-23T09:53:59.805Z,92.82
2023-01-23T09:59:07.392Z,105.32
2023-01-23T10:01:35.133Z,95.70
2023-01-23T10:04:04.208Z,117.93
2023-01-23T10:06:39.713Z,115.95
2023-01-23T10:09:43.279Z,104.82
2023-01-23T10:12:39.772Z,100.63
2023-01-23T10:15:24.420Z,113.65
2023-01-23T10:18:03.365Z,108.88
2023-01-23T10:20:50.473Z,101.70
2023-01-23T10:23:46.121Z,91.70
2023-01-23T10:26:22.643Z,118.80
2023-01-23T10:28:54.714Z,109.07
2023-01-23T10:31:50.664Z,91.40
2023-01-23T10:34:35.186Z,118.78
2023-01-23T10:37:37.699Z,109.60
2023-01-23T10:40:13.759Z,110.65
2023-01-23T10:42:41.716Z,115.70
2023-01-23T10:45:23.137Z,102.85
2023-01-23T10:47:55.089Z,120.88
2023-01-23T10:50:43.384Z,107.35
2023-01-23T10:53:21.203Z,106.25
2023-01-23T10:55:51.301Z,110.40
2023-01-23T10:58:41.992Z,108.65
2023-01-23T11:01:32.950Z,97.00
2023-01-23T11:04:20.396Z,87.40
2023-01-23T11:07:08.972Z,83.55
2023-01-23T11:10:21.217Z,80.30
2023-01-23T11:12:54.675Z,82.65
2023-01-23T11:18:02.520Z,77.32
2023-01-23T11:20:43.782Z,77.65
2023-01-23T11:23:14.312Z,81.13
2023-01-23T11:25:47.625Z,78.03
2023-01-23T11:28:35.637Z,81.35
2023-01-23T11:31:22.806Z,75.28
2023-01-23T11:33:57.037Z,78.85
2023-01-23T11:36:43.170Z,81.93
2023-01-23T11:39:22.737Z,85.90
2023-01-23T11:41:52.642Z,80.90
2023-01-23T11:44:24.400Z,81.70
2023-01-23T11:47:29.439Z,81.85
2023-01-23T11:50:28.338Z,80.78
2023-01-23T11:53:02.773Z,83.90
2023-01-23T11:55:57.929Z,88.90
2023-01-23T11:59:03.840Z,87.72
2023-01-23T12:01:55.004Z,91.38
2023-01-23T12:04:47.100Z,86.97
2023-01-23T12:07:23.540Z,95.43
2023-01-23T12:09:51.153Z,97.90
2023-01-23T12:12:51.980Z,95.97
2023-01-23T12:15:32.928Z,91.20
2023-01-23T12:18:09.553Z,96.38
2023-01-23T12:20:49.674Z,101.53
2023-01-23T12:23:33.507Z,102.07
2023-01-23T12:26:25.075Z,99.00
2023-01-23T12:29:11.215Z,98.90
2023-01-23T12:32:12.492Z,97.18
2023-01-23T12:34:59.876Z,96.85
2023-01-23T12:37:53.548Z,98.53
2023-01-23T12:43:57.590Z,94.95
2023-01-23T12:47:00.202Z,104.22
2023-01-23T12:49:49.628Z,100.57
2023-01-23T12:52:26.199Z,100.55
2023-01-23T12:55:25.400Z,96.43
2023-01-23T12:58:06.898Z,98.63
2023-01-23T13:00:43.150Z,99.00
2023-01-23T13:03:45.457Z,97.80
2023-01-23T13:06:50.953Z,97.30
2023-01-23T13:09:45.449Z,93.82
2023-01-23T13:12:22.274Z,90.75
2023-01-23T13:15:15.046Z,93.90
2023-01-23T13:17:59.463Z,98.20
2023-01-23T13:20:53.125Z,99.82
2023-01-23T13:23:29.839Z,104.80
2023-01-23T13:26:16.629Z,92.10
2023-01-23T13:28:55.376Z,99.43
2023-01-23T13:31:47.423Z,94.22
2023-01-23T13:34:17.965Z,110.85
2023-01-23T13:36:47.368Z,106.63
2023-01-23T13:39:22.306Z,104.53
2023-01-23T13:42:14.605Z,108.15
2023-01-23T13:45:19.288Z,104.20
2023-01-23T14:30:31.865Z,118.43
2023-01-23T14:32:59.657Z,118.22
2023-01-23T14:35:32.044Z,121.78
2023-01-23T14:38:05.340Z,140.73
2023-01-23T14:40:46.790Z,134.80
2023-01-23T14:43:28.095Z,135.18
2023-01-23T14:46:25.329Z,129.60
2023-01-23T14:48:55.684Z,124.13
2023-01-23T14:51:27.143Z,139.18
2023-01-23T14:54:06.476Z,129.05
2023-01-23T14:56:39.842Z,122.33
2023-01-23T14:59:19.666Z,133.27
2023-01-23T15:02:13.197Z,124.70
2023-01-23T15:05:07.521Z,139.20
2023-01-23T15:07:36.261Z,122.72
2023-01-23T15:10:05.048Z,120.85
2023-01-23T15:12:33.718Z,126.63
2023-01-23T15:15:01.257Z,120.85
2023-01-23T15:17:28.719Z,124.28
2023-01-23T15:19:55.935Z,126.13
2023-01-23T15:22:29.445Z,125.03
2023-01-23T15:27:34.076Z,114.85
2023-01-23T15:30:38.423Z,125.68
2023-01-23T15:33:26.516Z,140.32
2023-01-23T15:36:05.747Z,137.50
2023-01-23T15:38:33.539Z,136.38
2023-01-23T15:41:09.728Z,139.05
2023-01-23T15:43:38.563Z,157.32
2023-01-23T15:46:13.449Z,150.98
2023-01-23T15:48:41.028Z,157.38
2023-01-23T15:51:12.577Z,161.38
2023-01-23T15:53:42.103Z,155.25
2023-01-23T15:56:29.278Z,159.25
2023-01-23T15:59:00.994Z,162.88
2023-01-23T16:01:29.841Z,177.10
2023-01-23T16:03:57.278Z,174.10
2023-01-23T16:06:24.764Z,170.82
2023-01-23T16:09:00.924Z,172.32
2023-01-23T16:11:35.130Z,160.63
2023-01-23T16:14:03.389Z,177.55
2023-01-23T16:16:30.882Z,165.18
2023-01-23T16:18:57.983Z,177.10
2023-01-23T16:21:30.602Z,193.07
2023-01-23T16:23:59.712Z,173.30
2023-01-23T16:26:28.178Z,149.93
2023-01-23T16:29:08.706Z,150.30
2023-01-23T16:31:40.846Z,155.77
2023-01-23T16:34:08.251Z,151.85
2023-01-23T16:36:35.762Z,163.40
2023-01-23T16:39:03.552Z,209.18
2023-01-23T16:41:32.079Z,176.15
2023-01-23T16:43:59.623Z,171.00
2023-01-23T16:46:28.217Z,221.88
2023-01-23T16:48:57.297Z,280.77
2023-01-23T16:51:26.128Z,214.38
2023-01-23T16:53:58.628Z,200.25
2023-01-23T16:56:37.224Z,177.98
2023-01-23T16:59:08.440Z,212.52
2023-01-23T17:01:40.764Z,173.45
2023-01-23T17:04:08.028Z,215.85
2023-01-23T17:06:35.892Z,215.77
2023-01-23T17:09:03.184Z,188.98
2023-01-23T17:11:36.829Z,173.15
2023-01-23T17:14:14.874Z,179.50
2023-01-23T17:16:51.411Z,153.98
2023-01-23T17:19:31.755Z,149.07
2023-01-23T17:22:02.215Z,157.65
2023-01-23T17:24:31.428Z,139.55
2023-01-23T17:27:00.161Z,148.38
2023-01-23T17:29:27.806Z,140.52
2023-01-23T17:31:55.993Z,167.20
2023-01-23T17:34:28.335Z,165.18
2023-01-23T17:37:19.961Z,146.43
2023-01-23T17:39:47.674Z,213.77
2023-01-23T17:42:15.826Z,194.13
2023-01-23T17:44:44.157Z,152.02
2023-01-23T17:47:19.623Z,142.02
2023-01-23T17:49:57.291Z,147.73
2023-01-23T17:52:27.768Z,135.32
2023-01-23T17:54:56.519Z,173.00
2023-01-23T17:57:24.182Z,132.05
2023-01-23T17:59:56.512Z,128.02
2023-01-23T18:02:28.937Z,123.60
2023-01-23T18:04:58.113Z,138.18
2023-01-23T18:07:27.590Z,152.45
2023-01-23T18:09:56.797Z,160.45
2023-01-23T18:12:41.350Z,146.57
2023-01-23T18:15:42.284Z,148.65
2023-01-23T18:18:18.150Z,138.82
2023-01-23T18:20:48.637Z,140.80
2023-01-23T18:23:17.042Z,133.75
2023-01-23T18:25:48.178Z,143.45
2023-01-23T18:28:24.463Z,141.40
2023-01-23T18:31:20.786Z,133.93
2023-01-23T18:34:10.757Z,143.30
2023-01-23T18:36:49.989Z,144.40
2023-01-23T18:39:37.257Z,149.15
2023-01-23T18:42:46.544Z,156.20
2023-01-23T18:45:23.847Z,150.32
2023-01-23T18:47:56.452Z,141.95
2023-01-23T18:50:31.843Z,147.70
2023-01-23T18:53:35.110Z,152.88
2023-01-23T18:56:23.200Z,160.90
2023-01-23T18:59:11.689Z,153.20
2023-01-23T19:01:51.118Z,161.63
2023-01-23T19:04:21.791Z,160.23
2023-01-23T19:06:51.629Z,134.90
2023-01-23T19:09:22.632Z,132.48
2023-01-23T19:12:04.871Z,138.20
2023-01-23T19:14:48.716Z,122.95
2023-01-23T19:17:53.667Z,117.93
2023-01-23T19:20:41.221Z,139.98
2023-01-23T19:23:46.826Z,143.48
2023-01-23T19:26:18.555Z,141.40
2023-01-23T19:28:50.618Z,129.48
2023-01-23T19:31:30.435Z,127.10
2023-01-23T19:34:00.533Z,147.85
2023-01-23T19:36:31.505Z,150.32
2023-01-23T19:39:04.958Z,155.00
2023-01-23T19:41:38.852Z,128.07
2023-01-23T19:44:08.451Z,128.52
2023-01-23T19:46:36.359Z,122.45
2023-01-23T19:49:07.810Z,113.25
2023-01-23T19:51:37.957Z,111.78
2023-01-23T19:54:12.827Z,117.85
2023-01-23T19:56:41.470Z,116.75
2023-01-23T19:59:10.159Z,114.22
2023-01-23T20:01:47.425Z,105.47
2023-01-23T20:04:21.008Z,112.78
2023-01-23T20:09:23.465Z,107.00
2023-01-23T20:11:53.164Z,103.30
2023-01-23T20:14:22.906Z,120.90
2023-01-23T20:16:51.452Z,101.13
2023-01-23T20:19:20.966Z,111.28
2023-01-23T20:21:55.775Z,104.03
2023-01-23T20:24:23.821Z,109.00
2023-01-23T20:26:53.337Z,93.55
2023-01-23T20:29:21.876Z,102.45
2023-01-23T20:31:52.190Z,101.47
2023-01-23T20:34:20.486Z,103.38
2023-01-23T20:36:48.366Z,99.25
2023-01-23T20:39:17.869Z,104.95
2023-01-23T20:41:53.555Z,108.30
2023-01-23T20:44:21.615Z,97.93
2023-01-23T20:46:49.884Z,132.50
2023-01-23T20:49:17.799Z,185.35
2023-01-23T20:51:45.960Z,194.35
2023-01-23T20:54:15.754Z,165.55
2023-01-23T20:56:50.118Z,137.00
2023-01-23T20:59:22.308Z,152.98
2023-01-23T21:02:09.184Z,132.88
2023-01-23T21:04:42.316Z,118.55
2023-01-23T21:07:11.836Z,149.93
2023-01-23T21:09:39.728Z,135.55
2023-01-23T21:12:10.433Z,237.32
2023-01-23T21:14:38.191Z,186.23
2023-01-23T21:17:06.408Z,145.00
2023-01-23T21:19:40.631Z,136.30
2023-01-23T21:22:08.701Z,138.25
2023-01-23T21:24:38.368Z,121.18
2023-01-23T21:27:08.042Z,123.78
2023-01-23T21:29:35.583Z,124.25
2023-01-23T21:32:02.812Z,127.35
2023-01-23T21:34:32.531Z,114.93
2023-01-23T21:37:00.788Z,104.55
2023-01-23T21:39:28.367Z,97.38
2023-01-23T21:42:09.012Z,101.97
2023-01-23T21:44:36.429Z,98.65
2023-01-23T21:47:03.964Z,92.13
2023-01-23T21:49:31.620Z,114.75
2023-01-23T21:51:59.976Z,125.50
2023-01-23T21:54:28.259Z,125.82
2023-01-23T21:56:56.770Z,108.70
2023-01-23T21:59:24.129Z,99.40
2023-01-23T22:01:51.763Z,100.28
2023-01-23T22:04:23.536Z,110.15
2023-01-23T22:06:56.853Z,123.57
2023-01-23T22:09:25.947Z,106.28
2023-01-23T22:11:57.593Z,107.45
2023-01-23T22:14:25.094Z,98.70
2023-01-23T22:16:52.291Z,111.15
2023-01-23T22:19:25.382Z,109.70
2023-01-23T22:21:54.821Z,136.18
2023-01-23T22:24:24.519Z,109.32
2023-01-23T22:26:52.888Z,115.22
2023-01-23T22:29:20.354Z,110.97
2023-01-23T22:31:47.786Z,104.78
2023-01-23T22:34:16.302Z,115.30
2023-01-23T22:36:43.777Z,108.25
2023-01-23T22:39:18.248Z,106.05
2023-01-23T22:41:47.363Z,102.22
2023-01-23T22:44:14.904Z,95.85
2023-01-23T22:46:45.108Z,92.60
2023-01-23T22:49:12.272Z,77.82
2023-01-23T22:51:39.656Z,86.47
2023-01-23T22:54:08.231Z,85.45
2023-01-23T22:56:35.652Z,87.63
2023-01-23T22:59:05.238Z,90.97
2023-01-23T23:01:33.649Z,83.90
2023-01-23T23:04:01.259Z,81.88
2023-01-23T23:06:29.634Z,80.30
2023-01-23T23:08:56.831Z,73.13
2023-01-23T23:11:29.029Z,74.53
2023-01-23T23:13:57.544Z,68.70
2023-01-23T23:16:31.649Z,70.65
2023-01-23T23:19:01.971Z,74.63
2023-01-23T23:21:34.624Z,76.90
2023-01-23T23:24:09.006Z,74.93
2023-01-23T23:26:36.476Z,73.30
2023-01-23T23:29:05.458Z,76.68
2023-01-23T23:31:34.050Z,77.82
2023-01-23T23:34:01.328Z,84.75
2023-01-23T23:36:28.774Z,89.18
2023-01-23T23:38:56.205Z,83.38
2023-01-23T23:41:23.905Z,88.93
2023-01-23T23:43:51.444Z,89.13
2023-01-23T23:46:20.037Z,77.35
2023-01-23T23:48:48.331Z,80.22
2023-01-23T23:51:19.002Z,74.75
2023-01-23T23:53:47.076Z,80.90
2023-01-23T23:56:21.771Z,86.50
2023-01-23T23:58:49.353Z,78.28
